Time;durP1;ratioP1;P1;durP2;ratioP2;P2;SDS_P1;SDS_P2;PMS_P1;PMS_P2;Temp;Humidity;BMP_temperature;BMP_pressure;BME280_temperature;BME280_humidity;BME280_pressure;Samples;Min_cycle;Max_cycle;Signal;HPM_P1;HPM_P2
2022/04/17 00:01:10;;;;;;;4.32;2.15;;;9.90;45.00;;;9.80;41.68;101872.78;5012951;28;20038;-76
2022/04/17 00:03:38;;;;;;;3.28;2.17;;;9.80;45.20;;;9.82;41.35;101872.75;5029682;28;20178;-75
2022/04/17 00:06:06;;;;;;;3.53;2.20;;;9.80;45.10;;;9.82;41.26;101871.03;5029500;28;20044;-75
2022/04/17 00:08:33;;;;;;;5.97;2.50;;;11.30;46.00;;;9.75;41.97;101863.97;5030776;28;20045;-75
2022/04/17 00:11:01;;;;;;;3.45;2.33;;;9.80;45.30;;;9.75;42.26;101878.00;5012056;28;20712;-77
2022/04/17 00:13:29;;;;;;;2.67;2.05;;;9.70;45.60;;;9.75;42.12;101871.84;5030383;28;20037;-77
2022/04/17 00:15:56;;;;;;;3.20;2.10;;;10.20;46.30;;;9.65;42.77;101865.69;5029389;28;20129;-79
2022/04/17 00:18:23;;;;;;;2.60;2.15;;;9.70;46.00;;;9.62;42.81;101855.19;5030075;28;20120;-77
2022/04/17 00:20:50;;;;;;;3.40;2.78;;;9.60;46.30;;;9.53;43.13;101850.75;5028270;28;20034;-77
2022/04/17 00:23:17;;;;;;;3.75;2.35;;;9.60;46.40;;;9.56;42.71;101844.66;5030013;28;20124;-77
2022/04/17 00:25:44;;;;;;;3.88;2.10;;;9.70;46.60;;;9.48;43.32;101845.47;5030508;28;20514;-78
2022/04/17 00:28:11;;;;;;;2.30;1.83;;;9.60;46.80;;;9.39;43.66;101841.94;5012173;28;20053;-77
2022/04/17 00:30:38;;;;;;;3.38;2.20;;;9.50;46.90;;;9.39;43.68;101842.84;5028681;28;20045;-79
2022/04/17 00:33:05;;;;;;;3.97;2.10;;;9.40;46.70;;;9.25;44.27;101828.75;5029879;28;20498;-78
2022/04/17 00:35:34;;;;;;;3.85;2.38;;;9.40;47.20;;;9.31;43.56;101826.16;5040740;28;20057;-78
2022/04/17 00:38:02;;;;;;;2.70;2.30;;;9.40;46.90;;;9.22;43.99;101827.88;5011449;28;20055;-77
2022/04/17 00:40:29;;;;;;;4.68;2.28;;;9.30;47.10;;;9.27;44.30;101837.50;5030260;28;20045;-77
2022/04/17 00:42:59;;;;;;;3.80;2.40;;;9.30;47.30;;;9.28;44.31;101834.88;5028021;28;20060;-77
2022/04/17 00:45:26;;;;;;;5.70;3.08;;;9.60;47.50;;;9.21;44.38;101835.72;5028058;28;20064;-77
2022/04/17 00:47:53;;;;;;;3.25;2.47;;;9.30;47.30;;;9.14;44.60;101826.09;5027742;28;20091;-77
2022/04/17 00:50:21;;;;;;;2.45;2.17;;;9.20;47.30;;;9.13;44.63;101829.53;5018713;28;20060;-77
2022/04/17 00:52:47;;;;;;;4.22;2.70;;;9.70;47.70;;;9.15;44.88;101817.31;5027986;28;20042;-77
2022/04/17 00:55:16;;;;;;;3.47;2.28;;;9.20;47.70;;;9.16;44.71;101826.97;5027710;28;20052;-76
2022/04/17 00:57:44;;;;;;;3.88;2.25;;;9.20;47.70;;;8.98;45.42;101819.84;5027578;28;20041;-76
2022/04/17 01:00:11;;;;;;;4.22;1.92;;;9.20;48.10;;;9.01;44.97;101818.13;5026898;28;20769;-76
2022/04/17 01:02:38;;;;;;;3.25;2.28;;;9.10;48.10;;;8.86;45.70;101813.66;5028249;28;20037;-77
2022/04/17 01:05:06;;;;;;;3.85;2.42;;;9.00;48.10;;;8.87;45.59;101815.41;5015537;28;20041;-76
2022/04/17 01:07:33;;;;;;;2.63;2.15;;;9.00;48.20;;;8.82;45.25;101816.22;5009039;28;20057;-76
2022/04/17 01:10:02;;;;;;;2.30;1.98;;;8.90;48.30;;;8.82;46.08;101818.84;5006979;28;20137;-76
2022/04/17 01:12:30;;;;;;;3.28;2.28;;;9.10;48.60;;;8.77;45.82;101819.72;5024370;28;20045;-76
2022/04/17 01:14:58;;;;;;;3.47;1.90;;;9.20;48.60;;;8.72;46.33;101812.66;5027120;28;20045;-76
2022/04/17 01:17:25;;;;;;;4.20;2.88;;;8.80;48.60;;;8.75;45.88;101817.97;5027610;28;20044;-76
2022/04/17 01:19:52;;;;;;;2.60;2.22;;;8.80;48.60;;;8.73;46.81;101803.94;5030148;28;20504;-77
2022/04/17 01:22:19;;;;;;;4.65;2.03;;;8.80;48.90;;;8.61;46.57;101804.72;5034368;28;20048;-79
2022/04/17 01:27:32;;;;;;;4.07;2.40;;;9.80;49.60;;;8.47;47.40;101808.09;5035088;28;20052;-77
2022/04/17 01:29:59;;;;;;;3.83;2.55;;;8.70;49.40;;;8.47;47.09;101800.22;5032454;28;20046;-79
2022/04/17 01:32:26;;;;;;;3.22;2.35;;;10.70;50.60;;;8.45;47.24;101804.59;5015490;28;20050;-76
2022/04/17 01:34:53;;;;;;;4.43;2.58;;;8.60;49.40;;;8.50;47.23;101805.53;5033300;28;20514;-76
2022/04/17 01:37:20;;;;;;;4.32;2.25;;;8.90;49.50;;;8.45;47.17;101801.97;5027348;28;20045;-76
2022/04/17 01:39:47;;;;;;;2.63;2.42;;;9.60;50.00;;;8.22;48.74;101814.88;5027233;28;20049;-76
2022/04/17 01:42:16;;;;;;;2.20;2.00;;;8.50;50.00;;;8.19;49.45;101818.34;5027227;28;20653;-76
2022/04/17 01:44:44;;;;;;;2.30;2.10;;;8.40;50.80;;;8.16;49.25;101812.22;5011028;28;20494;-76
2022/04/17 01:47:11;;;;;;;5.55;2.67;;;8.40;50.30;;;8.21;48.47;101813.13;5027172;28;20068;-77
2022/04/17 01:49:38;;;;;;;3.30;2.17;;;8.30;50.10;;;8.20;49.43;101819.22;5043515;28;20033;-77
2022/04/17 01:52:07;;;;;;;3.42;2.42;;;8.30;50.50;;;8.14;49.14;101819.19;5027271;28;20053;-77
2022/04/17 01:54:34;;;;;;;3.13;2.33;;;8.30;50.60;;;8.09;49.11;101816.53;5027315;28;20037;-76
2022/04/17 01:57:01;;;;;;;3.05;2.30;;;8.70;50.80;;;8.08;49.41;101809.53;5028002;28;20045;-77
2022/04/17 01:59:28;;;;;;;3.00;2.20;;;8.20;50.90;;;8.01;50.21;101805.06;5027492;28;20046;-76
2022/04/17 02:01:56;;;;;;;5.38;2.33;;;8.20;51.00;;;8.05;49.70;101802.50;5026664;28;20041;-76
2022/04/17 02:04:26;;;;;;;4.60;2.47;;;8.10;51.00;;;8.04;50.84;101803.34;5026776;28;20052;-76
2022/04/17 02:06:53;;;;;;;;;;;8.10;51.80;;;8.04;50.01;101799.84;5028540;28;20101;-76
2022/04/17 02:09:20;;;;;;;2.85;2.40;;;8.10;51.40;;;8.13;50.39;101809.56;5026306;28;19932;-76
2022/04/17 02:11:48;;;;;;;3.47;2.70;;;9.80;52.70;;;8.02;51.09;101805.09;5027974;28;20117;-76
2022/04/17 02:14:15;;;;;;;2.75;2.22;;;8.10;52.00;;;8.05;50.86;101812.13;5026587;28;20042;-76
2022/04/17 02:16:42;;;;;;;3.25;2.38;;;8.10;52.40;;;8.01;50.88;101808.59;5034503;28;20496;-79
2022/04/17 02:19:09;;;;;;;3.20;2.30;;;8.10;52.20;;;7.90;50.79;101804.97;5033446;28;20059;-78
2022/04/17 02:21:36;;;;;;;3.55;2.50;;;8.20;52.10;;;7.91;51.97;101809.34;5016071;28;20037;-77
2022/04/17 02:24:05;;;;;;;4.13;2.67;;;8.10;52.90;;;7.83;52.24;101805.78;5031993;28;20042;-79
2022/04/17 02:26:32;;;;;;;2.53;2.33;;;8.00;52.80;;;7.87;51.64;101810.19;5015631;28;20045;-80
2022/04/17 02:29:00;;;;;;;3.67;2.63;;;8.90;53.30;;;7.99;52.04;101809.41;5032121;28;20029;-79
2022/04/17 02:31:28;;;;;;;6.22;2.28;;;9.10;54.20;;;7.92;51.52;101808.47;5015611;28;20061;-77
2022/04/17 02:33:57;;;;;;;2.83;2.38;;;8.00;53.00;;;7.84;51.25;101803.16;5031169;28;20124;-80
2022/04/17 02:36:24;;;;;;;3.85;2.35;;;8.00;53.10;;;7.83;51.60;101803.16;5033793;28;20383;-80
2022/04/17 02:38:53;;;;;;;3.58;2.20;;;8.00;53.40;;;7.78;52.09;101798.72;5033057;28;20073;-79
2022/04/17 02:41:21;;;;;;;3.20;2.90;;;7.90;53.50;;;7.66;52.96;101796.84;5032834;28;20721;-78
2022/04/17 02:43:48;;;;;;;3.05;2.55;;;7.90;54.00;;;7.63;53.26;101794.22;5033072;28;20401;-78
2022/04/17 02:47:42;;;;;;;2.80;2.05;;;7.80;54.30;;;7.64;51.98;101793.34;5031139;28;20083;-77
2022/04/17 02:49:02;;;;;;;5.45;2.47;;;8.20;54.10;;;7.62;52.71;101788.94;5027137;28;20056;-76
2022/04/17 02:51:29;;;;;;;5.68;2.75;;;8.80;54.80;;;7.58;53.30;101787.16;5028265;28;20049;-78
2022/04/17 02:53:56;;;;;;;5.15;2.50;;;7.70;55.00;;;7.51;54.38;101786.22;5010015;28;20061;-76
2022/04/17 02:56:23;;;;;;;3.60;2.42;;;7.70;55.40;;;7.37;55.76;101781.69;5026876;28;20042;-78
2022/04/17 02:58:52;;;;;;;3.78;2.70;;;7.60;56.20;;;7.37;54.79;101771.22;5028081;28;20222;-76
2022/04/17 03:06:50;;;;;;;3.85;2.65;;;7.50;56.50;;;7.34;55.71;101765.94;5031313;28;20037;-77
2022/04/17 03:09:18;;;;;;;4.47;2.47;;;7.50;56.90;;;7.30;55.31;101763.25;5031246;28;20616;-75
2022/04/17 03:11:45;;;;;;;3.80;2.45;;;7.40;57.00;;;7.25;55.86;101763.19;5031537;28;20120;-77
2022/04/17 03:14:13;;;;;;;2.83;2.15;;;7.40;57.20;;;7.25;56.36;101768.44;5031669;28;20060;-77
2022/04/17 03:16:40;;;;;;;5.28;2.70;;;7.40;57.50;;;7.16;56.63;101760.50;5031217;28;20123;-77
2022/04/17 03:19:07;;;;;;;4.28;2.30;;;9.00;58.70;;;7.04;58.46;101762.09;5029783;28;20054;-76
2022/04/17 03:21:34;;;;;;;3.85;2.65;;;7.30;58.50;;;7.05;58.41;101763.84;5030175;28;20045;-78
2022/04/17 03:24:01;;;;;;;3.35;2.35;;;7.30;59.00;;;7.00;58.90;101772.47;5046934;28;20409;-76
2022/04/17 03:26:28;;;;;;;3.42;2.60;;;7.80;59.60;;;6.89;60.11;101774.97;5030341;28;20042;-78
2022/04/17 03:28:55;;;;;;;4.43;2.67;;;7.20;60.00;;;6.75;62.83;101785.25;5030848;28;20049;-75
2022/04/17 03:31:22;;;;;;;3.70;2.47;;;7.10;61.40;;;6.77;61.33;101776.53;5029753;28;20506;-77
2022/04/17 03:33:49;;;;;;;5.38;2.53;;;7.00;61.10;;;6.79;63.70;101781.81;5013651;28;20147;-76
2022/04/17 03:36:16;;;;;;;5.07;2.72;;;7.50;63.00;;;6.72;62.18;101777.34;5031261;28;20675;-77
2022/04/17 03:38:43;;;;;;;3.83;2.00;;;6.90;62.20;;;6.71;63.46;101776.47;5029423;28;20041;-78
2022/04/17 03:41:10;;;;;;;4.00;2.78;;;6.90;63.40;;;6.67;64.22;101782.50;5029447;28;20041;-78
2022/04/17 03:43:37;;;;;;;4.13;2.80;;;6.90;64.80;;;6.67;63.77;101772.03;5029650;28;20053;-76
2022/04/17 03:46:04;;;;;;;5.03;2.45;;;6.80;64.90;;;6.66;63.24;101772.91;5030991;28;20113;-76
2022/04/17 03:48:31;;;;;;;3.60;2.60;;;6.80;65.00;;;6.60;65.51;101767.56;5030622;28;20112;-76
2022/04/17 03:50:59;;;;;;;4.72;2.97;;;6.80;66.30;;;6.65;63.61;101769.41;5012539;28;20057;-77
2022/04/17 03:53:25;;;;;;;3.75;3.03;;;8.70;66.80;;;6.59;65.26;101766.69;5029369;28;20387;-77
2022/04/17 03:55:53;;;;;;;3.70;2.63;;;6.80;67.00;;;6.61;63.71;101767.59;5032278;28;20685;-77
2022/04/17 03:58:19;;;;;;;3.70;2.40;;;6.70;67.30;;;6.56;66.69;101771.00;5032043;28;20046;-77
2022/04/17 04:00:47;;;;;;;4.22;2.83;;;8.30;69.40;;;6.49;66.27;101776.16;5027507;28;20060;-77
2022/04/17 04:03:15;;;;;;;3.30;2.67;;;6.70;68.10;;;6.48;65.48;101770.88;5012876;28;20144;-77
2022/04/17 04:05:43;;;;;;;3.95;2.70;;;6.70;68.30;;;6.45;66.88;101768.22;5029417;28;20049;-77
2022/04/17 04:08:10;;;;;;;4.40;2.72;;;6.60;69.20;;;6.37;67.64;101758.50;5029151;28;20045;-77
2022/04/17 04:10:37;;;;;;;4.50;3.03;;;8.40;70.70;;;6.41;69.16;101763.81;5029837;28;20045;-77
2022/04/17 04:13:04;;;;;;;3.70;2.30;;;6.60;71.20;;;6.38;66.96;101754.19;5029285;28;20033;-77
2022/04/17 04:15:32;;;;;;;4.93;2.80;;;6.60;70.70;;;6.30;67.93;101751.44;5029175;28;20067;-76
2022/04/17 04:17:59;;;;;;;3.97;3.20;;;7.80;71.70;;;6.16;71.50;101761.66;5028337;28;20049;-76
2022/04/17 04:20:26;;;;;;;5.90;3.20;;;6.50;72.70;;;6.16;71.92;101759.03;5029473;28;20414;-76
2022/04/17 04:22:55;;;;;;;6.80;3.30;;;8.20;74.50;;;6.15;70.61;101754.66;5028614;28;20092;-76
2022/04/17 04:25:22;;;;;;;4.10;3.00;;;6.40;73.50;;;6.18;69.90;101749.50;5029285;28;20128;-76
2022/04/17 04:30:34;;;;;;;4.72;2.95;;;7.50;74.50;;;6.20;70.14;101747.81;5028670;28;20052;-76
2022/04/17 04:33:01;;;;;;;4.00;2.97;;;7.70;75.30;;;6.19;69.75;101756.50;5030011;28;20052;-76
2022/04/17 04:35:29;;;;;;;4.13;3.00;;;6.40;74.20;;;6.22;70.67;101751.31;5045055;28;20045;-76
2022/04/17 04:37:59;;;;;;;5.35;3.00;;;7.00;75.60;;;6.18;72.36;101741.69;5028830;28;20053;-76
2022/04/17 04:40:28;;;;;;;4.53;3.00;;;6.40;76.40;;;6.16;73.26;101742.50;5028474;28;20124;-76
2022/04/17 04:43:00;;;;;;;6.05;3.00;;;6.30;77.40;;;6.12;73.78;101749.41;5028583;28;20548;-76
2022/04/17 04:48:15;;;;;;;3.20;2.90;;;6.30;77.10;;;6.12;73.74;101749.41;5028240;28;20052;-76
2022/04/17 04:50:41;;;;;;;5.95;2.85;;;6.30;78.80;;;6.11;73.14;101752.88;5012919;28;20042;-75
2022/04/17 04:53:09;;;;;;;4.32;2.83;;;6.30;78.50;;;6.07;73.47;101749.31;4992529;28;20092;-75
2022/04/17 04:55:36;;;;;;;3.47;2.55;;;6.30;78.70;;;6.12;72.90;101741.56;5009566;28;20049;-76
2022/04/17 04:58:03;;;;;;;3.55;3.05;;;6.30;78.80;;;6.16;73.44;101729.44;5020737;28;20041;-76
2022/04/17 05:00:30;;;;;;;4.47;2.83;;;6.30;79.00;;;6.18;71.93;101727.72;5029233;28;20120;-76
2022/04/17 05:02:57;;;;;;;5.40;3.30;;;6.30;78.70;;;6.20;72.61;101723.38;5028360;28;20053;-76
2022/04/17 05:05:24;;;;;;;4.63;2.80;;;8.30;80.90;;;6.22;73.16;101730.41;5028045;28;20045;-76
2022/04/17 05:07:51;;;;;;;5.10;2.95;;;4.90;79.20;;;6.16;74.83;101738.13;5029452;28;20715;-75
2022/04/17 05:10:18;;;;;;;5.15;3.08;;;6.40;80.60;;;6.16;74.47;101738.13;5027926;28;20421;-76
2022/04/17 05:12:45;;;;;;;3.30;2.88;;;6.40;80.70;;;6.19;74.75;101743.44;5042664;28;20056;-78
2022/04/17 05:15:13;;;;;;;5.85;3.38;;;6.40;81.00;;;6.24;74.36;101753.94;5047239;28;20049;-78
2022/04/17 05:17:40;;;;;;;3.55;2.65;;;6.70;81.50;;;6.27;73.54;101758.34;5013536;28;20037;-76
2022/04/17 05:20:09;;;;;;;3.63;2.92;;;6.40;80.80;;;6.29;74.47;101751.41;5028385;28;20048;-76
2022/04/17 05:22:36;;;;;;;3.20;2.90;;;6.40;81.70;;;6.27;74.43;101755.72;5037968;28;20092;-78
2022/04/17 05:25:03;;;;;;;2.85;2.22;;;6.40;82.10;;;6.28;73.87;101750.53;5037264;28;20482;-76
2022/04/17 05:27:30;;;;;;;3.88;2.97;;;6.40;81.70;;;6.36;72.81;101758.50;5029120;28;20045;-76
2022/04/17 05:29:57;;;;;;;3.53;2.85;;;6.50;81.40;;;6.37;71.12;101755.91;5029147;28;20416;-76
2022/04/17 05:32:24;;;;;;;3.55;3.17;;;6.50;81.20;;;6.39;71.79;101754.19;5028773;28;20513;-76
2022/04/17 05:34:51;;;;;;;4.85;3.10;;;6.50;81.10;;;6.48;71.61;101766.53;5029752;28;20077;-77
2022/04/17 05:37:18;;;;;;;3.47;2.90;;;6.70;81.50;;;6.55;72.31;101754.41;5028779;28;20041;-76
2022/04/17 05:39:45;;;;;;;4.25;2.90;;;7.10;82.10;;;6.57;71.96;101757.06;5028806;28;20112;-77
2022/04/17 05:42:13;;;;;;;8.18;2.95;;;6.60;81.50;;;6.60;70.82;101763.22;5029353;28;20049;-77
2022/04/17 05:44:47;;;;;;;3.60;2.97;;;6.70;81.00;;;6.60;70.02;101754.50;5030885;28;20045;-79
2022/04/17 05:47:14;;;;;;;4.03;3.08;;;7.60;81.50;;;6.62;70.35;101745.81;5028072;28;20068;-78
2022/04/17 05:49:42;;;;;;;3.75;3.13;;;6.70;80.90;;;6.70;70.05;101752.88;5027969;28;20060;-77
2022/04/17 05:52:11;;;;;;;6.32;3.30;;;6.70;81.30;;;6.72;70.21;101745.97;5028178;28;20048;-78
2022/04/17 05:54:43;;;;;;;3.00;2.50;;;6.80;81.40;;;6.85;68.61;101741.78;5027612;28;20041;-79
2022/04/17 05:57:10;;;;;;;5.13;3.25;;;6.80;80.50;;;6.88;69.19;101742.69;5047331;28;20148;-79
2022/04/17 05:59:38;;;;;;;3.90;2.97;;;6.90;81.10;;;6.93;69.84;101745.34;5028852;28;20085;-80
2022/04/17 06:02:08;;;;;;;6.20;2.92;;;7.20;81.60;;;6.99;69.15;101749.78;5028742;28;20085;-77
2022/04/17 06:04:38;;;;;;;4.78;3.10;;;7.20;81.40;;;7.06;67.48;101762.13;5027484;28;20479;-77
2022/04/17 06:07:05;;;;;;;5.57;3.33;;;7.10;80.80;;;7.08;68.40;101763.00;5028810;28;20049;-78
2022/04/17 06:09:32;;;;;;;4.05;3.45;;;7.10;81.20;;;7.14;68.27;101762.22;5026742;28;20507;-74
2022/04/17 06:11:59;;;;;;;4.30;3.30;;;7.20;81.20;;;7.17;65.51;101760.50;5031586;28;20045;-77
2022/04/17 06:14:26;;;;;;;4.70;3.13;;;7.20;79.70;;;7.19;65.81;101760.53;5040018;28;20092;-77
2022/04/17 06:16:53;;;;;;;7.28;3.05;;;7.20;80.20;;;7.26;66.04;101757.13;5047398;28;20041;-77
2022/04/17 06:19:20;;;;;;;5.38;3.33;;;7.20;79.80;;;7.32;67.45;101756.31;5043880;28;20050;-77
2022/04/17 06:21:47;;;;;;;4.55;3.03;;;7.50;80.60;;;7.36;65.07;101760.75;5029382;28;20461;-78
2022/04/17 06:24:14;;;;;;;5.40;3.30;;;7.30;79.80;;;7.43;65.13;101748.59;5012653;28;20045;-79
2022/04/17 06:26:42;;;;;;;5.63;3.15;;;7.40;79.60;;;7.50;63.84;101748.69;4997651;28;20046;-78
2022/04/17 06:29:09;;;;;;;5.72;3.50;;;7.50;79.20;;;7.57;63.43;101754.88;5031513;28;20065;-77
2022/04/17 06:31:36;;;;;;;6.80;4.35;;;7.50;79.30;;;7.64;61.52;101748.81;5031994;28;20943;-78
2022/04/17 06:34:03;;;;;;;4.00;3.00;;;7.60;78.20;;;7.69;63.67;101754.09;5034351;28;20050;-78
2022/04/17 06:36:30;;;;;;;3.92;3.30;;;7.60;79.40;;;7.74;62.86;101754.16;5036326;28;20593;-78
2022/04/17 06:38:57;;;;;;;3.95;3.30;;;9.40;79.90;;;7.84;62.45;101753.38;5052351;28;20053;-77
2022/04/17 06:41:24;;;;;;;5.53;3.95;;;7.80;79.00;;;7.89;61.54;101746.44;5036282;28;20042;-78
2022/04/17 06:43:51;;;;;;;5.38;3.60;;;7.80;78.60;;;7.94;60.70;101744.75;5035948;28;20111;-77
2022/04/17 06:46:18;;;;;;;4.25;3.40;;;7.90;78.20;;;7.99;59.86;101742.16;5050586;28;20069;-78
2022/04/17 06:48:45;;;;;;;3.65;2.92;;;8.00;77.60;;;8.14;62.36;101741.41;5038424;28;20045;-78
2022/04/17 06:51:13;;;;;;;4.72;2.97;;;8.00;79.00;;;8.20;61.96;101724.84;5030307;28;20129;-77
2022/04/17 06:53:40;;;;;;;3.92;3.13;;;8.20;78.90;;;8.35;59.78;101731.94;5032561;28;20025;-76
2022/04/17 06:56:08;;;;;;;4.65;3.47;;;8.30;77.70;;;8.47;59.31;101726.78;5030619;28;20053;-76
2022/04/17 06:58:34;;;;;;;4.50;3.33;;;8.70;77.90;;;8.58;58.71;101728.63;5015098;28;20072;-76
2022/04/17 07:01:02;;;;;;;6.75;3.20;;;8.80;77.80;;;8.67;56.02;101727.81;5031490;28;20505;-76
2022/04/17 07:03:29;;;;;;;3.85;2.85;;;8.50;76.20;;;8.74;55.22;101722.59;5032143;28;20462;-76
2022/04/17 07:05:56;;;;;;;3.45;2.83;;;8.80;75.60;;;8.81;54.92;101718.28;5031574;28;20049;-77
2022/04/17 07:08:23;;;;;;;7.18;3.30;;;8.70;75.30;;;8.88;54.25;101717.41;5032230;28;20426;-77
2022/04/17 07:10:50;;;;;;;4.65;3.35;;;8.80;74.70;;;8.92;53.56;101713.06;5031154;28;20049;-77
2022/04/17 07:13:19;;;;;;;4.63;3.22;;;8.80;74.20;;;8.98;53.66;101718.34;5034101;28;20120;-77
2022/04/17 07:15:46;;;;;;;4.45;2.95;;;8.90;74.30;;;9.04;53.45;101705.25;5031636;28;20045;-77
2022/04/17 07:18:14;;;;;;;5.07;2.90;;;8.90;74.10;;;9.10;53.18;101714.91;5015085;28;20057;-77
2022/04/17 07:20:41;;;;;;;4.00;3.17;;;9.20;74.20;;;9.20;52.99;101707.91;5028310;28;20042;-77
2022/04/17 07:23:08;;;;;;;4.45;2.88;;;9.40;73.90;;;9.29;52.59;101712.31;5045152;28;20057;-77
2022/04/17 07:25:38;;;;;;;3.13;2.80;;;9.20;73.60;;;9.39;52.86;101710.59;5010771;28;20057;-77
2022/04/17 07:28:14;;;;;;;3.78;3.13;;;9.20;73.70;;;9.46;51.13;101708.00;5031416;28;20435;-77
2022/04/17 07:30:43;;;;;;;4.60;2.92;;;9.30;72.70;;;9.54;50.73;101708.00;5031294;28;20052;-77
2022/04/17 07:33:10;;;;;;;5.05;2.92;;;9.30;72.00;;;9.56;49.83;101703.63;5047501;28;20105;-78
2022/04/17 07:35:37;;;;;;;5.45;2.70;;;9.40;71.20;;;9.69;50.46;101703.66;5031626;28;20043;-77
2022/04/17 07:38:05;;;;;;;4.22;2.70;;;9.50;71.90;;;9.78;49.85;101709.78;5030239;28;20049;-76
2022/04/17 07:40:35;;;;;;;4.30;3.08;;;10.70;72.00;;;9.87;48.71;101698.41;5027311;28;20687;-77
2022/04/17 07:43:04;;;;;;;5.78;2.92;;;9.60;70.20;;;9.93;48.47;101690.53;5031257;28;20045;-77
2022/04/17 07:45:33;;;;;;;4.60;2.67;;;9.70;69.90;;;10.04;48.18;101685.25;5030650;28;20459;-77
2022/04/17 07:48:00;;;;;;;4.07;2.67;;;9.80;69.70;;;10.17;48.03;101686.13;5037457;28;20633;-79
2022/04/17 07:50:31;;;;;;;3.25;2.28;;;9.90;69.50;;;10.30;46.51;101680.84;5032621;28;20060;-77
2022/04/17 07:53:00;;;;;;;3.63;2.30;;;10.00;68.40;;;10.38;45.88;101681.72;5030913;28;20160;-77
2022/04/17 07:55:28;;;;;;;4.30;2.25;;;10.20;67.50;;;10.54;45.44;101677.31;5030568;28;20061;-77
2022/04/17 07:58:12;;;;;;;6.57;2.70;;;10.30;66.80;;;10.76;45.49;101685.13;5030280;28;20060;-79
2022/04/17 08:00:48;;;;;;;3.20;2.25;;;10.40;66.30;;;10.83;44.38;101676.34;5029521;28;20052;-78
2022/04/17 08:06:05;;;;;;;5.25;2.38;;;10.70;66.40;;;11.11;43.04;101675.31;5029868;28;20091;-79
2022/04/17 08:08:37;;;;;;;3.95;2.30;;;10.80;63.80;;;11.15;42.84;101675.31;5031483;28;20069;-79
2022/04/17 08:11:05;;;;;;;3.20;2.28;;;10.90;63.10;;;11.22;41.90;101670.88;5029594;28;20441;-80
2022/04/17 08:13:34;;;;;;;3.03;2.15;;;11.30;61.90;;;11.23;41.53;101666.47;5028066;28;20120;-78
2022/04/17 08:16:04;;;;;;;5.35;2.45;;;11.30;61.30;;;11.30;41.69;101669.06;5013602;28;20132;-79
2022/04/17 08:18:33;;;;;;;;;;;11.10;60.80;;;11.45;42.04;101660.19;5031795;28;20105;-79
2022/04/17 08:21:00;;;;;;;4.95;2.45;;;11.10;61.60;;;11.43;41.79;101642.63;5029046;28;19925;-79
2022/04/17 08:23:28;;;;;;;3.35;2.88;;;11.20;60.80;;;11.52;41.85;101639.06;5018401;28;20107;-79
2022/04/17 08:25:55;;;;;;;2.33;1.90;;;11.40;61.20;;;11.56;41.30;101639.03;5031958;28;20099;-80
2022/04/17 08:28:22;;;;;;;4.43;2.40;;;11.30;59.90;;;11.57;40.89;101639.91;5032942;28;20413;-80
2022/04/17 08:30:50;;;;;;;4.50;2.20;;;11.40;59.40;;;11.67;41.10;101640.72;5032649;28;20046;-79
2022/04/17 08:33:17;;;;;;;2.83;2.10;;;11.40;59.70;;;11.72;40.72;101628.34;5033107;28;20049;-79
2022/04/17 08:35:46;;;;;;;2.63;2.15;;;11.50;59.20;;;11.70;40.03;101641.53;5036182;28;20777;-79
2022/04/17 08:38:14;;;;;;;3.00;2.00;;;10.80;58.00;;;11.83;40.20;101629.13;5040251;28;20045;-79
2022/04/17 08:40:41;;;;;;;3.22;2.60;;;11.50;58.50;;;11.80;39.16;101623.91;5013356;28;20038;-79
2022/04/17 08:43:08;;;;;;;4.20;2.17;;;11.60;57.30;;;11.84;39.11;101630.88;5029278;28;20054;-79
2022/04/17 08:45:36;;;;;;;3.80;2.28;;;11.70;57.20;;;11.87;39.35;101625.56;5018078;28;20081;-79
2022/04/17 08:48:04;;;;;;;3.22;2.05;;;11.60;56.90;;;11.94;39.54;101621.13;5032977;28;20049;-79
2022/04/17 08:50:32;;;;;;;3.50;1.90;;;11.70;57.20;;;12.00;39.67;101623.69;5016617;28;20426;-78
2022/04/17 08:53:01;;;;;;;3.22;2.20;;;11.70;57.00;;;12.10;38.91;101618.34;5047007;28;20048;-78
2022/04/17 08:55:29;;;;;;;4.28;2.15;;;11.80;57.00;;;12.17;39.40;101615.63;5023271;28;20067;-79
2022/04/17 08:57:56;;;;;;;2.63;2.10;;;11.90;56.90;;;12.20;39.33;101605.03;5041490;28;20056;-80
2022/04/17 09:00:23;;;;;;;4.65;2.20;;;11.90;57.00;;;12.28;39.22;101612.03;5040124;28;20042;-79
2022/04/17 09:02:50;;;;;;;4.05;2.40;;;12.00;56.90;;;12.33;38.91;101612.84;5021217;28;20049;-79
2022/04/17 09:05:19;;;;;;;3.10;2.13;;;12.10;56.40;;;12.45;38.56;101612.69;5030169;28;20049;-79
2022/04/17 09:07:53;;;;;;;4.82;2.30;;;12.10;55.90;;;12.52;37.73;101605.56;5030726;28;20041;-80
2022/04/17 09:10:32;;;;;;;3.88;2.28;;;12.20;55.10;;;12.67;38.38;101596.56;5029481;28;20521;-79
2022/04/17 09:13:02;;;;;;;6.00;2.15;;;12.30;55.90;;;12.78;37.82;101601.72;5030177;28;20033;-79
2022/04/17 09:15:34;;;;;;;;;;;12.40;55.30;;;12.83;36.99;101591.09;5013317;28;20049;-79
2022/04/17 09:18:08;;;;;;;3.00;1.88;;;12.50;54.10;;;12.90;36.53;101598.03;5029067;28;19932;-80
2022/04/17 09:20:49;;;;;;;4.45;2.28;;;12.60;53.80;;;12.97;35.48;101590.91;5029413;28;20081;-79
2022/04/17 09:23:33;;;;;;;4.88;2.10;;;12.70;52.20;;;13.08;35.81;101581.03;5029797;28;20049;-80
2022/04/17 09:26:00;;;;;;;3.22;2.17;;;12.70;52.80;;;13.03;34.96;101583.78;5029374;28;20033;-79
2022/04/17 09:28:33;;;;;;;3.45;1.95;;;13.10;52.00;;;13.12;35.19;101587.16;5028572;28;20148;-79
2022/04/17 09:31:08;;;;;;;4.45;2.22;;;12.80;51.70;;;13.22;35.85;101585.25;5028589;28;20059;-79
2022/04/17 09:33:38;;;;;;;6.43;2.20;;;12.90;52.40;;;13.24;36.41;101583.44;5023735;28;20113;-80
2022/04/17 09:36:06;;;;;;;3.00;2.10;;;14.50;53.50;;;13.26;35.45;101584.28;5010327;28;20052;-80
2022/04/17 09:38:39;;;;;;;3.70;1.92;;;13.00;52.20;;;13.43;36.84;101573.44;5013201;28;20034;-80
2022/04/17 09:41:14;;;;;;;4.20;2.22;;;13.00;53.50;;;13.47;35.86;101575.16;4995512;28;20408;-79
2022/04/17 09:43:45;;;;;;;2.78;2.08;;;13.70;52.50;;;13.56;36.00;101571.50;5012995;28;20153;-80
2022/04/17 09:46:13;;;;;;;3.75;2.63;;;13.20;52.50;;;13.65;35.13;101581.03;5012231;28;20042;-80
2022/04/17 09:48:45;;;;;;;5.40;2.55;;;13.70;51.80;;;13.84;35.19;101576.28;5012310;28;20057;-79
2022/04/17 09:51:23;;;;;;;3.72;2.15;;;13.40;51.50;;;13.93;34.84;101565.56;5031102;28;20061;-79
2022/04/17 09:54:06;;;;;;;3.70;2.70;;;13.60;51.30;;;13.97;35.34;101576.94;5031681;28;20040;-80
2022/04/17 09:56:40;;;;;;;2.78;2.00;;;13.90;51.60;;;14.08;35.36;101569.66;5031684;28;20047;-80
2022/04/17 09:59:22;;;;;;;2.70;2.17;;;13.60;51.70;;;14.10;35.05;101545.84;5030038;28;20056;-80
2022/04/17 10:01:51;;;;;;;3.00;2.22;;;13.70;51.30;;;14.11;34.94;101561.66;5028961;28;20691;-79
2022/04/17 10:04:20;;;;;;;2.60;1.85;;;14.50;51.40;;;14.27;34.47;101553.41;5045157;28;20053;-79
2022/04/17 10:06:50;;;;;;;2.88;2.17;;;13.90;50.70;;;14.32;33.45;101555.06;5044892;28;20494;-80
2022/04/17 10:09:18;;;;;;;2.92;1.95;;;13.90;49.60;;;14.38;33.75;101547.91;5027365;28;20053;-79
2022/04/17 10:11:46;;;;;;;3.33;2.33;;;14.40;49.90;;;14.50;33.55;101550.28;5027672;28;20184;-79
2022/04/17 10:14:15;;;;;;;3.50;2.30;;;14.10;49.60;;;14.55;33.77;101548.44;5012147;28;20414;-79
2022/04/17 10:16:46;;;;;;;3.25;2.35;;;14.10;49.80;;;14.68;35.02;101543.72;5027964;28;20562;-78
2022/04/17 10:19:19;;;;;;;4.00;2.80;;;14.20;50.80;;;14.78;34.86;101548.84;5044700;28;20049;-78
2022/04/17 10:21:47;;;;;;;3.65;2.40;;;14.30;51.00;;;14.78;35.09;101544.41;5027758;28;20045;-78
2022/04/17 10:24:20;;;;;;;3.22;2.30;;;14.40;50.80;;;14.83;34.63;101529.31;5028042;28;20042;-79
2022/04/17 10:26:54;;;;;;;4.32;2.35;;;14.50;50.60;;;14.88;34.24;101522.09;5027984;28;20176;-78
2022/04/17 10:29:30;;;;;;;2.58;1.90;;;14.50;50.40;;;15.03;34.57;101512.03;5027720;28;20713;-79
2022/04/17 10:32:28;;;;;;;4.75;3.40;;;14.60;50.60;;;15.30;33.63;101525.53;5027967;28;20129;-77
2022/04/17 10:35:26;;;;;;;2.80;2.17;;;14.80;50.20;;;15.37;33.42;101512.97;5027837;28;20045;-77
2022/04/17 10:38:41;;;;;;;3.30;2.00;;;14.90;49.50;;;15.55;32.83;101515.16;5044104;28;20063;-78
2022/04/17 10:41:12;;;;;;;3.10;2.20;;;15.00;49.40;;;15.68;32.98;101509.50;5030648;28;20045;-78
2022/04/17 10:43:42;;;;;;;5.68;2.58;;;15.20;49.10;;;15.69;32.52;101508.63;5027488;28;20051;-78
2022/04/17 10:46:20;;;;;;;3.08;2.00;;;15.30;48.50;;;15.82;32.60;101496.72;5044465;28;20056;-78